sensor_id;sensor_type;location;lat;lon;timestamp;P1;durP1;ratioP1;P2;durP2;ratioP2
13419;SDS011;6781;58.440;15.470;2023-09-08T00:01:21;4.82;;;4.38;;
13419;SDS011;6781;58.440;15.470;2023-09-08T00:03:48;5.03;;;4.63;;
13419;SDS011;6781;58.440;15.470;2023-09-08T00:06:15;5.25;;;4.53;;
13419;SDS011;6781;58.440;15.470;2023-09-08T00:08:42;5.72;;;5.03;;
13419;SDS011;6781;58.440;15.470;2023-09-08T00:11:09;5.13;;;4.72;;
13419;SDS011;6781;58.440;15.470;2023-09-08T00:13:36;4.50;;;4.20;;
13419;SDS011;6781;58.440;15.470;2023-09-08T00:16:05;7.72;;;4.72;;
13419;SDS011;6781;58.440;15.470;2023-09-08T00:18:34;6.30;;;5.25;;
13419;SDS011;6781;58.440;15.470;2023-09-08T00:21:01;5.22;;;4.70;;
13419;SDS011;6781;58.440;15.470;2023-09-08T00:23:28;5.35;;;4.63;;
13419;SDS011;6781;58.440;15.470;2023-09-08T00:25:55;5.72;;;5.18;;
13419;SDS011;6781;58.440;15.470;2023-09-08T00:28:23;5.80;;;4.35;;
13419;SDS011;6781;58.440;15.470;2023-09-08T00:30:50;6.28;;;4.28;;
13419;SDS011;6781;58.440;15.470;2023-09-08T00:33:17;5.72;;;5.22;;
13419;SDS011;6781;58.440;15.470;2023-09-08T00:35:47;6.03;;;5.22;;
13419;SDS011;6781;58.440;15.470;2023-09-08T00:38:15;4.78;;;4.38;;
13419;SDS011;6781;58.440;15.470;2023-09-08T00:40:42;5.13;;;4.72;;
13419;SDS011;6781;58.440;15.470;2023-09-08T00:43:09;5.63;;;5.13;;
13419;SDS011;6781;58.440;15.470;2023-09-08T00:45:37;5.38;;;4.72;;
13419;SDS011;6781;58.440;15.470;2023-09-08T00:48:06;7.60;;;5.13;;
13419;SDS011;6781;58.440;15.470;2023-09-08T00:50:34;5.57;;;5.07;;
13419;SDS011;6781;58.440;15.470;2023-09-08T00:53:03;6.93;;;4.78;;
13419;SDS011;6781;58.440;15.470;2023-09-08T00:55:31;8.85;;;5.50;;
13419;SDS011;6781;58.440;15.470;2023-09-08T00:58:01;5.30;;;4.90;;
13419;SDS011;6781;58.440;15.470;2023-09-08T01:00:29;6.20;;;4.82;;
13419;SDS011;6781;58.440;15.470;2023-09-08T01:02:57;6.57;;;4.88;;
13419;SDS011;6781;58.440;15.470;2023-09-08T01:05:24;5.55;;;5.05;;
13419;SDS011;6781;58.440;15.470;2023-09-08T01:07:51;5.60;;;4.40;;
13419;SDS011;6781;58.440;15.470;2023-09-08T01:10:22;4.80;;;4.30;;
13419;SDS011;6781;58.440;15.470;2023-09-08T01:12:50;4.65;;;4.25;;
13419;SDS011;6781;58.440;15.470;2023-09-08T01:15:17;7.13;;;4.25;;
13419;SDS011;6781;58.440;15.470;2023-09-08T01:17:44;4.95;;;4.43;;
13419;SDS011;6781;58.440;15.470;2023-09-08T01:20:13;6.90;;;4.05;;
13419;SDS011;6781;58.440;15.470;2023-09-08T01:25:41;4.70;;;3.85;;
13419;SDS011;6781;58.440;15.470;2023-09-08T01:28:13;5.93;;;4.63;;
13419;SDS011;6781;58.440;15.470;2023-09-08T01:30:41;5.00;;;4.60;;
13419;SDS011;6781;58.440;15.470;2023-09-08T01:33:08;5.60;;;4.30;;
13419;SDS011;6781;58.440;15.470;2023-09-08T01:35:35;4.90;;;4.50;;
13419;SDS011;6781;58.440;15.470;2023-09-08T01:38:02;4.85;;;4.45;;
13419;SDS011;6781;58.440;15.470;2023-09-08T01:40:30;4.55;;;4.15;;
13419;SDS011;6781;58.440;15.470;2023-09-08T01:42:58;4.57;;;4.18;;
13419;SDS011;6781;58.440;15.470;2023-09-08T01:45:25;5.07;;;4.22;;
13419;SDS011;6781;58.440;15.470;2023-09-08T01:47:52;4.65;;;4.13;;
13419;SDS011;6781;58.440;15.470;2023-09-08T01:50:19;4.97;;;4.47;;
13419;SDS011;6781;58.440;15.470;2023-09-08T01:52:47;7.70;;;4.32;;
13419;SDS011;6781;58.440;15.470;2023-09-08T01:55:14;4.72;;;4.32;;
13419;SDS011;6781;58.440;15.470;2023-09-08T01:57:41;5.32;;;4.72;;
13419;SDS011;6781;58.440;15.470;2023-09-08T02:00:11;5.30;;;4.80;;
13419;SDS011;6781;58.440;15.470;2023-09-08T02:05:14;5.15;;;4.65;;
13419;SDS011;6781;58.440;15.470;2023-09-08T02:07:41;5.57;;;5.05;;
13419;SDS011;6781;58.440;15.470;2023-09-08T02:10:08;5.45;;;4.95;;
13419;SDS011;6781;58.440;15.470;2023-09-08T02:12:36;5.47;;;4.95;;
13419;SDS011;6781;58.440;15.470;2023-09-08T02:15:03;5.63;;;5.13;;
13419;SDS011;6781;58.440;15.470;2023-09-08T02:17:33;5.32;;;4.78;;
13419;SDS011;6781;58.440;15.470;2023-09-08T02:20:00;5.55;;;5.05;;
13419;SDS011;6781;58.440;15.470;2023-09-08T02:22:28;6.18;;;5.18;;
13419;SDS011;6781;58.440;15.470;2023-09-08T02:24:55;6.10;;;5.05;;
13419;SDS011;6781;58.440;15.470;2023-09-08T02:27:23;5.43;;;4.88;;
13419;SDS011;6781;58.440;15.470;2023-09-08T02:29:50;6.45;;;5.40;;
13419;SDS011;6781;58.440;15.470;2023-09-08T02:32:17;6.05;;;5.45;;
13419;SDS011;6781;58.440;15.470;2023-09-08T02:34:45;5.10;;;4.70;;
13419;SDS011;6781;58.440;15.470;2023-09-08T02:37:13;5.63;;;5.03;;
13419;SDS011;6781;58.440;15.470;2023-09-08T02:39:40;7.28;;;5.22;;
13419;SDS011;6781;58.440;15.470;2023-09-08T02:42:08;5.85;;;5.22;;
13419;SDS011;6781;58.440;15.470;2023-09-08T02:44:35;5.47;;;5.03;;
13419;SDS011;6781;58.440;15.470;2023-09-08T02:47:02;5.95;;;5.13;;
13419;SDS011;6781;58.440;15.470;2023-09-08T02:49:31;7.22;;;5.20;;
13419;SDS011;6781;58.440;15.470;2023-09-08T02:52:00;6.25;;;5.28;;
13419;SDS011;6781;58.440;15.470;2023-09-08T02:54:27;5.80;;;5.15;;
13419;SDS011;6781;58.440;15.470;2023-09-08T02:56:54;6.88;;;6.25;;
13419;SDS011;6781;58.440;15.470;2023-09-08T02:59:21;6.15;;;5.43;;
13419;SDS011;6781;58.440;15.470;2023-09-08T03:01:48;5.88;;;5.35;;
13419;SDS011;6781;58.440;15.470;2023-09-08T03:04:15;7.50;;;5.85;;
13419;SDS011;6781;58.440;15.470;2023-09-08T03:06:42;5.95;;;5.13;;
13419;SDS011;6781;58.440;15.470;2023-09-08T03:09:10;6.93;;;5.68;;
13419;SDS011;6781;58.440;15.470;2023-09-08T03:11:37;6.50;;;5.10;;
13419;SDS011;6781;58.440;15.470;2023-09-08T03:14:04;6.38;;;5.72;;
13419;SDS011;6781;58.440;15.470;2023-09-08T03:16:31;6.13;;;5.50;;
13419;SDS011;6781;58.440;15.470;2023-09-08T03:18:58;8.68;;;5.60;;
13419;SDS011;6781;58.440;15.470;2023-09-08T03:21:25;6.45;;;5.85;;
13419;SDS011;6781;58.440;15.470;2023-09-08T03:23:52;6.50;;;5.90;;
13419;SDS011;6781;58.440;15.470;2023-09-08T03:26:21;6.65;;;5.70;;
13419;SDS011;6781;58.440;15.470;2023-09-08T03:28:48;6.78;;;6.05;;
13419;SDS011;6781;58.440;15.470;2023-09-08T03:31:15;6.35;;;5.72;;
13419;SDS011;6781;58.440;15.470;2023-09-08T03:33:42;7.85;;;5.57;;
13419;SDS011;6781;58.440;15.470;2023-09-08T03:36:09;7.00;;;6.32;;
13419;SDS011;6781;58.440;15.470;2023-09-08T03:38:37;9.43;;;6.10;;
13419;SDS011;6781;58.440;15.470;2023-09-08T03:41:04;6.47;;;5.93;;
13419;SDS011;6781;58.440;15.470;2023-09-08T03:43:34;7.13;;;6.18;;
13419;SDS011;6781;58.440;15.470;2023-09-08T03:46:01;8.57;;;6.80;;
13419;SDS011;6781;58.440;15.470;2023-09-08T03:48:28;7.10;;;6.47;;
13419;SDS011;6781;58.440;15.470;2023-09-08T03:50:55;8.05;;;6.65;;
13419;SDS011;6781;58.440;15.470;2023-09-08T03:53:22;8.25;;;7.03;;
13419;SDS011;6781;58.440;15.470;2023-09-08T03:55:49;10.23;;;6.45;;
13419;SDS011;6781;58.440;15.470;2023-09-08T03:58:17;7.43;;;6.30;;
13419;SDS011;6781;58.440;15.470;2023-09-08T04:00:46;7.60;;;6.32;;
13419;SDS011;6781;58.440;15.470;2023-09-08T04:03:13;7.72;;;5.95;;
13419;SDS011;6781;58.440;15.470;2023-09-08T04:05:40;7.70;;;6.40;;
13419;SDS011;6781;58.440;15.470;2023-09-08T04:08:07;7.88;;;6.70;;
13419;SDS011;6781;58.440;15.470;2023-09-08T04:10:34;7.15;;;6.45;;
13419;SDS011;6781;58.440;15.470;2023-09-08T04:13:02;7.03;;;6.43;;
13419;SDS011;6781;58.440;15.470;2023-09-08T04:15:29;8.05;;;7.32;;
13419;SDS011;6781;58.440;15.470;2023-09-08T04:17:57;7.18;;;6.53;;
13419;SDS011;6781;58.440;15.470;2023-09-08T04:20:24;7.45;;;6.72;;
13419;SDS011;6781;58.440;15.470;2023-09-08T04:22:51;7.20;;;6.50;;
13419;SDS011;6781;58.440;15.470;2023-09-08T04:25:21;7.97;;;7.18;;
13419;SDS011;6781;58.440;15.470;2023-09-08T04:27:48;7.70;;;6.63;;
13419;SDS011;6781;58.440;15.470;2023-09-08T04:30:15;6.55;;;5.95;;
13419;SDS011;6781;58.440;15.470;2023-09-08T04:32:42;9.07;;;6.50;;
13419;SDS011;6781;58.440;15.470;2023-09-08T04:35:10;7.32;;;6.13;;
13419;SDS011;6781;58.440;15.470;2023-09-08T04:37:37;8.13;;;6.47;;
13419;SDS011;6781;58.440;15.470;2023-09-08T04:40:05;6.78;;;6.13;;
13419;SDS011;6781;58.440;15.470;2023-09-08T04:42:33;7.75;;;6.95;;
13419;SDS011;6781;58.440;15.470;2023-09-08T04:45:00;7.57;;;6.70;;
13419;SDS011;6781;58.440;15.470;2023-09-08T04:47:27;7.13;;;6.47;;
13419;SDS011;6781;58.440;15.470;2023-09-08T04:49:54;6.55;;;5.93;;
13419;SDS011;6781;58.440;15.470;2023-09-08T04:52:23;7.13;;;6.43;;
13419;SDS011;6781;58.440;15.470;2023-09-08T04:54:49;8.15;;;7.18;;
13419;SDS011;6781;58.440;15.470;2023-09-08T04:57:17;7.90;;;6.68;;
13419;SDS011;6781;58.440;15.470;2023-09-08T04:59:44;7.78;;;6.40;;
13419;SDS011;6781;58.440;15.470;2023-09-08T05:02:11;7.35;;;6.60;;
13419;SDS011;6781;58.440;15.470;2023-09-08T05:04:38;7.20;;;6.45;;
13419;SDS011;6781;58.440;15.470;2023-09-08T05:07:05;7.05;;;6.30;;
13419;SDS011;6781;58.440;15.470;2023-09-08T05:09:33;6.28;;;5.68;;
13419;SDS011;6781;58.440;15.470;2023-09-08T05:12:01;9.75;;;7.03;;
13419;SDS011;6781;58.440;15.470;2023-09-08T05:14:28;7.97;;;6.65;;
13419;SDS011;6781;58.440;15.470;2023-09-08T05:16:55;8.30;;;7.25;;
13419;SDS011;6781;58.440;15.470;2023-09-08T05:19:22;10.70;;;7.68;;
13419;SDS011;6781;58.440;15.470;2023-09-08T05:21:50;7.40;;;6.80;;
13419;SDS011;6781;58.440;15.470;2023-09-08T05:24:17;7.88;;;7.15;;
13419;SDS011;6781;58.440;15.470;2023-09-08T05:26:47;7.65;;;6.90;;
13419;SDS011;6781;58.440;15.470;2023-09-08T05:29:14;7.53;;;6.78;;
13419;SDS011;6781;58.440;15.470;2023-09-08T05:31:41;7.75;;;7.03;;
13419;SDS011;6781;58.440;15.470;2023-09-08T05:34:09;8.10;;;7.30;;
13419;SDS011;6781;58.440;15.470;2023-09-08T05:36:36;8.05;;;7.25;;
13419;SDS011;6781;58.440;15.470;2023-09-08T05:39:05;7.80;;;6.97;;
13419;SDS011;6781;58.440;15.470;2023-09-08T05:41:33;8.13;;;7.33;;
13419;SDS011;6781;58.440;15.470;2023-09-08T05:44:02;7.93;;;7.20;;
13419;SDS011;6781;58.440;15.470;2023-09-08T05:46:29;8.90;;;7.97;;
13419;SDS011;6781;58.440;15.470;2023-09-08T05:48:57;8.65;;;7.75;;
13419;SDS011;6781;58.440;15.470;2023-09-08T05:51:24;8.70;;;7.80;;
13419;SDS011;6781;58.440;15.470;2023-09-08T05:53:51;9.93;;;7.85;;
13419;SDS011;6781;58.440;15.470;2023-09-08T05:56:18;8.45;;;7.57;;
13419;SDS011;6781;58.440;15.470;2023-09-08T05:58:46;11.90;;;8.40;;
13419;SDS011;6781;58.440;15.470;2023-09-08T06:01:14;8.05;;;6.18;;
13419;SDS011;6781;58.440;15.470;2023-09-08T06:03:42;8.45;;;7.57;;
13419;SDS011;6781;58.440;15.470;2023-09-08T06:06:09;8.52;;;7.70;;
13419;SDS011;6781;58.440;15.470;2023-09-08T06:08:36;9.02;;;8.13;;
13419;SDS011;6781;58.440;15.470;2023-09-08T06:11:03;9.38;;;7.57;;
13419;SDS011;6781;58.440;15.470;2023-09-08T06:13:30;8.23;;;7.53;;
13419;SDS011;6781;58.440;15.470;2023-09-08T06:15:57;10.70;;;7.93;;
13419;SDS011;6781;58.440;15.470;2023-09-08T06:18:27;9.00;;;8.10;;
13419;SDS011;6781;58.440;15.470;2023-09-08T06:20:57;11.77;;;8.50;;
13419;SDS011;6781;58.440;15.470;2023-09-08T06:23:25;8.05;;;7.32;;
13419;SDS011;6781;58.440;15.470;2023-09-08T06:25:55;10.65;;;7.70;;
13419;SDS011;6781;58.440;15.470;2023-09-08T06:28:25;8.93;;;8.07;;
13419;SDS011;6781;58.440;15.470;2023-09-08T06:30:52;9.20;;;8.40;;
13419;SDS011;6781;58.440;15.470;2023-09-08T06:33:19;8.73;;;7.88;;
13419;SDS011;6781;58.440;15.470;2023-09-08T06:35:48;8.85;;;7.80;;
13419;SDS011;6781;58.440;15.470;2023-09-08T06:38:16;8.35;;;7.65;;
13419;SDS011;6781;58.440;15.470;2023-09-08T06:40:43;8.30;;;7.50;;
13419;SDS011;6781;58.440;15.470;2023-09-08T06:43:10;8.25;;;7.53;;
13419;SDS011;6781;58.440;15.470;2023-09-08T06:45:37;9.25;;;8.20;;
13419;SDS011;6781;58.440;15.470;2023-09-08T06:48:05;8.00;;;7.18;;
13419;SDS011;6781;58.440;15.470;2023-09-08T06:50:32;8.07;;;7.18;;
13419;SDS011;6781;58.440;15.470;2023-09-08T06:53:01;8.65;;;7.70;;
13419;SDS011;6781;58.440;15.470;2023-09-08T06:55:28;7.43;;;6.60;;
13419;SDS011;6781;58.440;15.470;2023-09-08T06:57:55;7.97;;;7.18;;
13419;SDS011;6781;58.440;15.470;2023-09-08T07:00:23;9.70;;;7.68;;
13419;SDS011;6781;58.440;15.470;2023-09-08T07:02:50;9.27;;;8.18;;
13419;SDS011;6781;58.440;15.470;2023-09-08T07:05:17;8.90;;;7.32;;
13419;SDS011;6781;58.440;15.470;2023-09-08T07:07:44;9.50;;;7.78;;
13419;SDS011;6781;58.440;15.470;2023-09-08T07:10:13;7.75;;;6.95;;
13419;SDS011;6781;58.440;15.470;2023-09-08T07:12:40;8.45;;;7.65;;
13419;SDS011;6781;58.440;15.470;2023-09-08T07:15:07;9.20;;;7.68;;
13419;SDS011;6781;58.440;15.470;2023-09-08T07:17:35;8.02;;;7.30;;
13419;SDS011;6781;58.440;15.470;2023-09-08T07:20:02;10.02;;;6.80;;
13419;SDS011;6781;58.440;15.470;2023-09-08T07:22:30;10.07;;;7.53;;
13419;SDS011;6781;58.440;15.470;2023-09-08T07:24:57;7.85;;;7.05;;
13419;SDS011;6781;58.440;15.470;2023-09-08T07:27:25;7.65;;;6.93;;
13419;SDS011;6781;58.440;15.470;2023-09-08T07:29:52;6.32;;;5.72;;
13419;SDS011;6781;58.440;15.470;2023-09-08T07:32:19;7.82;;;6.53;;
13419;SDS011;6781;58.440;15.470;2023-09-08T07:34:47;7.57;;;6.88;;
13419;SDS011;6781;58.440;15.470;2023-09-08T07:37:20;6.85;;;6.15;;
13419;SDS011;6781;58.440;15.470;2023-09-08T07:39:47;7.63;;;6.88;;
13419;SDS011;6781;58.440;15.470;2023-09-08T07:42:14;9.52;;;6.95;;
13419;SDS011;6781;58.440;15.470;2023-09-08T07:44:42;7.45;;;6.75;;
13419;SDS011;6781;58.440;15.470;2023-09-08T07:47:09;8.65;;;7.35;;
13419;SDS011;6781;58.440;15.470;2023-09-08T07:49:36;7.97;;;6.50;;
13419;SDS011;6781;58.440;15.470;2023-09-08T07:52:04;7.82;;;7.13;;
13419;SDS011;6781;58.440;15.470;2023-09-08T07:54:32;10.05;;;7.32;;
13419;SDS011;6781;58.440;15.470;2023-09-08T07:56:59;7.88;;;7.05;;
13419;SDS011;6781;58.440;15.470;2023-09-08T07:59:26;9.15;;;7.00;;
13419;SDS011;6781;58.440;15.470;2023-09-08T08:01:55;9.90;;;7.43;;
13419;SDS011;6781;58.440;15.470;2023-09-08T08:04:22;7.47;;;6.88;;
13419;SDS011;6781;58.440;15.470;2023-09-08T08:06:49;8.52;;;6.57;;
13419;SDS011;6781;58.440;15.470;2023-09-08T08:09:16;8.00;;;7.25;;
13419;SDS011;6781;58.440;15.470;2023-09-08T08:11:43;8.32;;;7.50;;
13419;SDS011;6781;58.440;15.470;2023-09-08T08:14:10;8.32;;;7.60;;
13419;SDS011;6781;58.440;15.470;2023-09-08T08:16:37;8.40;;;7.47;;
13419;SDS011;6781;58.440;15.470;2023-09-08T08:19:06;10.13;;;7.82;;
13419;SDS011;6781;58.440;15.470;2023-09-08T08:21:33;8.88;;;7.80;;
13419;SDS011;6781;58.440;15.470;2023-09-08T08:24:00;8.60;;;6.82;;
13419;SDS011;6781;58.440;15.470;2023-09-08T08:26:27;9.68;;;7.20;;
13419;SDS011;6781;58.440;15.470;2023-09-08T08:28:57;8.02;;;7.30;;
13419;SDS011;6781;58.440;15.470;2023-09-08T08:31:24;6.82;;;6.22;;
13419;SDS011;6781;58.440;15.470;2023-09-08T08:33:52;6.95;;;6.20;;
13419;SDS011;6781;58.440;15.470;2023-09-08T08:36:20;7.25;;;6.57;;
13419;SDS011;6781;58.440;15.470;2023-09-08T08:38:47;7.28;;;6.68;;
13419;SDS011;6781;58.440;15.470;2023-09-08T08:41:14;10.20;;;6.88;;
13419;SDS011;6781;58.440;15.470;2023-09-08T08:43:41;7.32;;;6.40;;
13419;SDS011;6781;58.440;15.470;2023-09-08T08:46:09;8.30;;;7.15;;
13419;SDS011;6781;58.440;15.470;2023-09-08T08:48:38;8.80;;;7.13;;
13419;SDS011;6781;58.440;15.470;2023-09-08T08:51:07;7.63;;;6.53;;
13419;SDS011;6781;58.440;15.470;2023-09-08T08:53:38;6.15;;;5.65;;
13419;SDS011;6781;58.440;15.470;2023-09-08T08:56:06;7.93;;;6.25;;
13419;SDS011;6781;58.440;15.470;2023-09-08T08:58:35;6.80;;;6.28;;
13419;SDS011;6781;58.440;15.470;2023-09-08T09:01:03;7.45;;;6.00;;
13419;SDS011;6781;58.440;15.470;2023-09-08T09:03:30;7.28;;;6.18;;
13419;SDS011;6781;58.440;15.470;2023-09-08T09:05:59;9.55;;;6.80;;
13419;SDS011;6781;58.440;15.470;2023-09-08T09:08:26;6.75;;;6.15;;
13419;SDS011;6781;58.440;15.470;2023-09-08T09:10:56;7.88;;;6.25;;
13419;SDS011;6781;58.440;15.470;2023-09-08T09:13:23;6.95;;;6.30;;
13419;SDS011;6781;58.440;15.470;2023-09-08T09:15:50;7.70;;;5.97;;
13419;SDS011;6781;58.440;15.470;2023-09-08T09:18:18;10.77;;;6.35;;
13419;SDS011;6781;58.440;15.470;2023-09-08T09:20:53;8.05;;;6.43;;
13419;SDS011;6781;58.440;15.470;2023-09-08T09:23:26;6.50;;;5.90;;
13419;SDS011;6781;58.440;15.470;2023-09-08T09:25:54;8.13;;;6.50;;
13419;SDS011;6781;58.440;15.470;2023-09-08T09:28:23;9.02;;;6.78;;
13419;SDS011;6781;58.440;15.470;2023-09-08T09:30:51;6.30;;;5.65;;
13419;SDS011;6781;58.440;15.470;2023-09-08T09:33:19;9.43;;;5.97;;
13419;SDS011;6781;58.440;15.470;2023-09-08T09:35:48;10.93;;;6.30;;
13419;SDS011;6781;58.440;15.470;2023-09-08T09:38:16;6.43;;;5.35;;
13419;SDS011;6781;58.440;15.470;2023-09-08T09:40:44;7.43;;;6.82;;
13419;SDS011;6781;58.440;15.470;2023-09-08T09:43:12;6.38;;;5.88;;
13419;SDS011;6781;58.440;15.470;2023-09-08T09:45:42;6.47;;;5.95;;
13419;SDS011;6781;58.440;15.470;2023-09-08T09:48:10;7.05;;;6.30;;
13419;SDS011;6781;58.440;15.470;2023-09-08T09:50:37;6.68;;;5.88;;
13419;SDS011;6781;58.440;15.470;2023-09-08T09:53:08;6.90;;;6.15;;
13419;SDS011;6781;58.440;15.470;2023-09-08T09:55:36;7.30;;;5.80;;
13419;SDS011;6781;58.440;15.470;2023-09-08T09:58:04;9.30;;;6.32;;
13419;SDS011;6781;58.440;15.470;2023-09-08T10:00:32;5.82;;;5.32;;
13419;SDS011;6781;58.440;15.470;2023-09-08T10:03:04;7.78;;;5.60;;
13419;SDS011;6781;58.440;15.470;2023-09-08T10:05:32;6.30;;;5.68;;
13419;SDS011;6781;58.440;15.470;2023-09-08T10:08:00;6.30;;;5.70;;
13419;SDS011;6781;58.440;15.470;2023-09-08T10:10:27;6.80;;;5.38;;
13419;SDS011;6781;58.440;15.470;2023-09-08T10:13:01;8.02;;;6.18;;
13419;SDS011;6781;58.440;15.470;2023-09-08T10:15:32;7.13;;;6.43;;
13419;SDS011;6781;58.440;15.470;2023-09-08T10:18:00;7.82;;;7.03;;
13419;SDS011;6781;58.440;15.470;2023-09-08T10:20:32;7.10;;;6.40;;
13419;SDS011;6781;58.440;15.470;2023-09-08T10:23:02;7.53;;;6.47;;
13419;SDS011;6781;58.440;15.470;2023-09-08T10:25:35;9.25;;;7.45;;
13419;SDS011;6781;58.440;15.470;2023-09-08T10:28:06;7.57;;;6.78;;
13419;SDS011;6781;58.440;15.470;2023-09-08T10:30:33;6.53;;;5.93;;
13419;SDS011;6781;58.440;15.470;2023-09-08T10:33:01;11.32;;;6.93;;
13419;SDS011;6781;58.440;15.470;2023-09-08T10:35:30;7.82;;;7.03;;
13419;SDS011;6781;58.440;15.470;2023-09-08T10:40:49;7.15;;;6.47;;
13419;SDS011;6781;58.440;15.470;2023-09-08T10:43:17;10.10;;;7.07;;
13419;SDS011;6781;58.440;15.470;2023-09-08T10:45:45;8.23;;;7.22;;
13419;SDS011;6781;58.440;15.470;2023-09-08T10:48:12;6.28;;;5.78;;
13419;SDS011;6781;58.440;15.470;2023-09-08T10:50:42;6.95;;;6.32;;
13419;SDS011;6781;58.440;15.470;2023-09-08T10:53:13;8.02;;;6.63;;
13419;SDS011;6781;58.440;15.470;2023-09-08T10:55:41;7.03;;;6.22;;
13419;SDS011;6781;58.440;15.470;2023-09-08T10:58:17;7.32;;;6.50;;
13419;SDS011;6781;58.440;15.470;2023-09-08T11:00:45;7.93;;;7.13;;
13419;SDS011;6781;58.440;15.470;2023-09-08T11:03:14;8.48;;;7.13;;
13419;SDS011;6781;58.440;15.470;2023-09-08T11:05:55;8.77;;;7.35;;
13419;SDS011;6781;58.440;15.470;2023-09-08T11:08:22;9.70;;;6.85;;
13419;SDS011;6781;58.440;15.470;2023-09-08T11:10:50;8.63;;;7.70;;
13419;SDS011;6781;58.440;15.470;2023-09-08T11:13:17;7.93;;;6.95;;
13419;SDS011;6781;58.440;15.470;2023-09-08T11:15:44;7.53;;;6.82;;
13419;SDS011;6781;58.440;15.470;2023-09-08T11:18:11;9.40;;;7.15;;
13419;SDS011;6781;58.440;15.470;2023-09-08T11:20:38;7.57;;;6.88;;
13419;SDS011;6781;58.440;15.470;2023-09-08T11:23:07;7.75;;;6.95;;
13419;SDS011;6781;58.440;15.470;2023-09-08T11:25:34;7.28;;;6.57;;
13419;SDS011;6781;58.440;15.470;2023-09-08T11:28:01;8.77;;;6.63;;
13419;SDS011;6781;58.440;15.470;2023-09-08T11:30:28;6.53;;;5.93;;
13419;SDS011;6781;58.440;15.470;2023-09-08T11:32:56;11.60;;;6.57;;
13419;SDS011;6781;58.440;15.470;2023-09-08T11:35:26;7.20;;;6.60;;
13419;SDS011;6781;58.440;15.470;2023-09-08T11:37:58;7.22;;;6.50;;
13419;SDS011;6781;58.440;15.470;2023-09-08T11:40:27;6.65;;;6.10;;
13419;SDS011;6781;58.440;15.470;2023-09-08T11:42:54;8.35;;;6.65;;
13419;SDS011;6781;58.440;15.470;2023-09-08T11:45:21;11.80;;;6.22;;
13419;SDS011;6781;58.440;15.470;2023-09-08T11:47:50;6.70;;;6.10;;
13419;SDS011;6781;58.440;15.470;2023-09-08T11:50:19;8.60;;;6.35;;
13419;SDS011;6781;58.440;15.470;2023-09-08T11:52:46;8.93;;;6.30;;
13419;SDS011;6781;58.440;15.470;2023-09-08T11:55:15;8.25;;;7.45;;
13419;SDS011;6781;58.440;15.470;2023-09-08T11:57:45;7.45;;;6.70;;
13419;SDS011;6781;58.440;15.470;2023-09-08T12:00:15;7.03;;;6.32;;
13419;SDS011;6781;58.440;15.470;2023-09-08T12:02:46;7.00;;;6.30;;
13419;SDS011;6781;58.440;15.470;2023-09-08T12:05:13;8.75;;;6.65;;
13419;SDS011;6781;58.440;15.470;2023-09-08T12:07:46;6.70;;;5.97;;
13419;SDS011;6781;58.440;15.470;2023-09-08T12:10:13;8.43;;;6.25;;
13419;SDS011;6781;58.440;15.470;2023-09-08T12:12:45;7.30;;;6.50;;
13419;SDS011;6781;58.440;15.470;2023-09-08T12:17:58;7.93;;;6.25;;
13419;SDS011;6781;58.440;15.470;2023-09-08T12:20:26;7.57;;;6.90;;
13419;SDS011;6781;58.440;15.470;2023-09-08T12:22:54;9.77;;;6.85;;
13419;SDS011;6781;58.440;15.470;2023-09-08T12:25:21;6.53;;;5.93;;
13419;SDS011;6781;58.440;15.470;2023-09-08T12:27:51;6.82;;;6.22;;
13419;SDS011;6781;58.440;15.470;2023-09-08T12:30:21;8.00;;;6.40;;
13419;SDS011;6781;58.440;15.470;2023-09-08T12:32:55;6.30;;;5.70;;
13419;SDS011;6781;58.440;15.470;2023-09-08T12:35:23;6.95;;;5.53;;
13419;SDS011;6781;58.440;15.470;2023-09-08T12:37:57;6.88;;;6.25;;
13419;SDS011;6781;58.440;15.470;2023-09-08T12:40:26;5.93;;;4.60;;
13419;SDS011;6781;58.440;15.470;2023-09-08T12:42:55;6.90;;;6.20;;
13419;SDS011;6781;58.440;15.470;2023-09-08T12:45:23;7.40;;;5.80;;
13419;SDS011;6781;58.440;15.470;2023-09-08T12:47:52;8.32;;;5.55;;
13419;SDS011;6781;58.440;15.470;2023-09-08T12:50:20;5.53;;;5.03;;
13419;SDS011;6781;58.440;15.470;2023-09-08T12:52:47;6.80;;;4.90;;
13419;SDS011;6781;58.440;15.470;2023-09-08T12:55:14;6.47;;;5.35;;
13419;SDS011;6781;58.440;15.470;2023-09-08T12:57:41;6.03;;;5.43;;
13419;SDS011;6781;58.440;15.470;2023-09-08T13:00:10;8.23;;;5.78;;
13419;SDS011;6781;58.440;15.470;2023-09-08T13:02:38;5.53;;;5.03;;
13419;SDS011;6781;58.440;15.470;2023-09-08T13:05:05;10.07;;;6.10;;
13419;SDS011;6781;58.440;15.470;2023-09-08T13:07:33;6.47;;;4.82;;
13419;SDS011;6781;58.440;15.470;2023-09-08T13:10:00;9.18;;;5.63;;
13419;SDS011;6781;58.440;15.470;2023-09-08T13:12:27;6.85;;;5.03;;
13419;SDS011;6781;58.440;15.470;2023-09-08T13:14:54;6.75;;;6.15;;
13419;SDS011;6781;58.440;15.470;2023-09-08T13:17:22;6.03;;;5.53;;
13419;SDS011;6781;58.440;15.470;2023-09-08T13:19:49;7.95;;;5.90;;
13419;SDS011;6781;58.440;15.470;2023-09-08T13:22:16;6.53;;;5.75;;
13419;SDS011;6781;58.440;15.470;2023-09-08T13:24:43;7.45;;;5.75;;
13419;SDS011;6781;58.440;15.470;2023-09-08T13:27:23;6.90;;;6.30;;
13419;SDS011;6781;58.440;15.470;2023-09-08T13:29:53;8.55;;;6.22;;
13419;SDS011;6781;58.440;15.470;2023-09-08T13:32:20;8.95;;;6.03;;
13419;SDS011;6781;58.440;15.470;2023-09-08T13:34:51;8.18;;;5.55;;
13419;SDS011;6781;58.440;15.470;2023-09-08T13:37:18;6.95;;;6.38;;
13419;SDS011;6781;58.440;15.470;2023-09-08T13:39:45;6.68;;;6.05;;
13419;SDS011;6781;58.440;15.470;2023-09-08T13:42:12;6.53;;;5.25;;
13419;SDS011;6781;58.440;15.470;2023-09-08T13:44:39;6.03;;;5.30;;
13419;SDS011;6781;58.440;15.470;2023-09-08T13:47:06;5.35;;;4.90;;
13419;SDS011;6781;58.440;15.470;2023-09-08T13:49:33;8.00;;;5.22;;
13419;SDS011;6781;58.440;15.470;2023-09-08T13:52:02;6.32;;;5.72;;
13419;SDS011;6781;58.440;15.470;2023-09-08T13:54:29;6.68;;;5.82;;
13419;SDS011;6781;58.440;15.470;2023-09-08T13:56:59;6.55;;;5.45;;
13419;SDS011;6781;58.440;15.470;2023-09-08T13:59:27;6.05;;;5.47;;
13419;SDS011;6781;58.440;15.470;2023-09-08T14:01:58;8.00;;;5.90;;
13419;SDS011;6781;58.440;15.470;2023-09-08T14:04:26;6.18;;;5.60;;
13419;SDS011;6781;58.440;15.470;2023-09-08T14:06:53;5.97;;;5.47;;
13419;SDS011;6781;58.440;15.470;2023-09-08T14:09:22;6.72;;;5.72;;
13419;SDS011;6781;58.440;15.470;2023-09-08T14:11:51;5.85;;;5.25;;
13419;SDS011;6781;58.440;15.470;2023-09-08T14:14:18;5.75;;;5.03;;
13419;SDS011;6781;58.440;15.470;2023-09-08T14:16:46;6.95;;;6.13;;
13419;SDS011;6781;58.440;15.470;2023-09-08T14:19:13;6.88;;;4.70;;
13419;SDS011;6781;58.440;15.470;2023-09-08T14:21:40;6.13;;;5.55;;
13419;SDS011;6781;58.440;15.470;2023-09-08T14:24:07;6.55;;;5.40;;
13419;SDS011;6781;58.440;15.470;2023-09-08T14:26:35;8.00;;;4.95;;
13419;SDS011;6781;58.440;15.470;2023-09-08T14:29:02;7.25;;;4.72;;
13419;SDS011;6781;58.440;15.470;2023-09-08T14:31:30;5.88;;;5.18;;
13419;SDS011;6781;58.440;15.470;2023-09-08T14:33:57;6.13;;;5.10;;
13419;SDS011;6781;58.440;15.470;2023-09-08T14:36:24;7.63;;;5.55;;
13419;SDS011;6781;58.440;15.470;2023-09-08T14:39:00;6.32;;;5.78;;
13419;SDS011;6781;58.440;15.470;2023-09-08T14:42:12;5.97;;;5.40;;
13419;SDS011;6781;58.440;15.470;2023-09-08T14:44:40;9.93;;;5.45;;
13419;SDS011;6781;58.440;15.470;2023-09-08T14:47:07;5.85;;;5.20;;
13419;SDS011;6781;58.440;15.470;2023-09-08T14:49:35;5.85;;;4.93;;
13419;SDS011;6781;58.440;15.470;2023-09-08T14:52:02;5.40;;;5.00;;
13419;SDS011;6781;58.440;15.470;2023-09-08T14:54:29;6.35;;;5.30;;
13419;SDS011;6781;58.440;15.470;2023-09-08T14:56:58;6.70;;;5.13;;
13419;SDS011;6781;58.440;15.470;2023-09-08T14:59:28;8.15;;;5.53;;
13419;SDS011;6781;58.440;15.470;2023-09-08T15:01:55;5.45;;;4.80;;
13419;SDS011;6781;58.440;15.470;2023-09-08T15:04:23;5.50;;;4.97;;